Terminal Aerodrome Forecast
Issued by NWS

Home | Current Version | Previous Version | Text Only | Print | Product List | Glossary On
Versions: 1 2 3 4 5 6 7 8 9 10 11 12 13 14
000
FTUS42 KMLB 141100
TAFFPR
TAF
KFPR 141140Z 1412/1512 17004KT P6SM VCSH SCT030 BKN250
     FM141600 10008KT P6SM VCTS SCT030CB BKN250
     FM142100 13010KT P6SM SCT030 BKN120
     FM150200 20003KT P6SM FEW040 BKN120=

USA.gov is the U.S. government's official web portal to all federal, state and local government web resources and services.